Issaquah, WA

9:46 PM PST on December 26, 2014 (GMT -0800)
Eastgate (Hills south of I-90 / 148th Ave Jct) | Change Station
CLOSE
Current Station
Personal Weather Station
Location: Bellevue, WA
Elevation: 976 ft
Nearby Weather Stations

Elev 976 ft 47.55 °N, 122.14 °W | Updated 1 minute ago

Overcast
Overcast
37.3 °F
Feels Like 37 °F
N
0.0
Wind Variable Wind from WSW
Gusts 0.0 mph

Today
High -- | Low -- °F
--% Chance of Precip.
Yesterday
High -- | Low -- °F
Precip. -- in
7:55 AM 4:22 PM
Waxing Crescent, 33% visible
Pressure 30.37 in
Visibility 9.0 miles
Clouds Overcast 2000 ft
Windchill 37 °F
Dew Point 35 °F
Humidity 92%
Rainfall 0.00 in
Snow Depth Not available.
UV 0 out of 12
Pollen 1.40 out of 12
Air Quality Not available.
Flu Activity Not available.
METAR KRNT 270453Z AUTO 00000KT 9SM OVC020 04/02 A3035 RMK AO2 SLP282 T00390022

More Conditions Fewer Conditions

Pressure 30.37 in
Visibility 9.0 miles
Clouds Overcast 2000 ft
Windchill 37 °F
Dew Point 35 °F
Humidity 92%
Rainfall 0.00 in
Snow Depth Not available.
UV 0 out of 12
Pollen 1.40 out of 12
Air Quality Not available.
Flu Activity Not available.
METAR KRNT 270453Z AUTO 00000KT 9SM OVC020 04/02 A3035 RMK AO2 SLP282 T00390022

More Conditions Fewer Conditions

10-Day Weather Forecast

Almanac

Astronomy

Dec. 26, 2014 Rise Set
Actual Time
Civil Twilight
Nautical Twilight
Astronomical Twilight
Moon
Length of Visible Light
Length of Day
Tomorrow will be .
, % of the Moon is Illuminated

Today's Extremes

State Highs State Lows

Community

WunderPhotos

Upload Photos

1,780,850 photos uploaded!

WunderBlogs® & News

Nearby

Air Quality

  Air Quality AQ Index Pollutant
Not available.

Snow Depth

Station Depth Elevation

Earthquake Activity

City Distance Mag. Time & Date
Minimum magnitude displayed is 2.5.

Coastal Water Temperatures

Place Temperature

Nearby Weather Stations